sensor_id;sensor_type;location;lat;lon;timestamp;temperature;humidity
49489;SHT31;35382;51.484;11.476;2023-04-06T00:00:44;-2.40;87.46
49489;SHT31;35382;51.484;11.476;2023-04-06T00:02:25;-2.40;87.78
49489;SHT31;35382;51.484;11.476;2023-04-06T00:04:06;-2.38;87.71
49489;SHT31;35382;51.484;11.476;2023-04-06T00:05:48;-2.48;88.30
49489;SHT31;35382;51.484;11.476;2023-04-06T00:07:29;-2.53;88.67
49489;SHT31;35382;51.484;11.476;2023-04-06T00:09:10;-2.42;88.09
49489;SHT31;35382;51.484;11.476;2023-04-06T00:10:51;-2.45;88.09
49489;SHT31;35382;51.484;11.476;2023-04-06T00:12:32;-2.45;87.95
49489;SHT31;35382;51.484;11.476;2023-04-06T00:14:13;-2.41;87.58
49489;SHT31;35382;51.484;11.476;2023-04-06T00:15:54;-2.45;87.69
49489;SHT31;35382;51.484;11.476;2023-04-06T00:17:35;-2.44;87.62
49489;SHT31;35382;51.484;11.476;2023-04-06T00:19:16;-2.46;87.83
49489;SHT31;35382;51.484;11.476;2023-04-06T00:20:57;-2.46;87.87
49489;SHT31;35382;51.484;11.476;2023-04-06T00:22:40;-2.44;87.95
49489;SHT31;35382;51.484;11.476;2023-04-06T00:24:21;-2.49;87.91
49489;SHT31;35382;51.484;11.476;2023-04-06T00:26:02;-2.51;87.76
49489;SHT31;35382;51.484;11.476;2023-04-06T00:27:43;-2.51;87.89
49489;SHT31;35382;51.484;11.476;2023-04-06T00:29:25;-2.58;88.32
49489;SHT31;35382;51.484;11.476;2023-04-06T00:31:06;-2.65;88.59
49489;SHT31;35382;51.484;11.476;2023-04-06T00:32:47;-2.70;88.97
49489;SHT31;35382;51.484;11.476;2023-04-06T00:34:28;-2.69;89.05
49489;SHT31;35382;51.484;11.476;2023-04-06T00:36:09;-2.69;88.83
49489;SHT31;35382;51.484;11.476;2023-04-06T00:37:50;-2.73;88.82
49489;SHT31;35382;51.484;11.476;2023-04-06T00:39:31;-2.70;88.60
49489;SHT31;35382;51.484;11.476;2023-04-06T00:41:12;-2.69;88.61
49489;SHT31;35382;51.484;11.476;2023-04-06T00:42:53;-2.63;88.60
49489;SHT31;35382;51.484;11.476;2023-04-06T00:44:34;-2.65;88.52
49489;SHT31;35382;51.484;11.476;2023-04-06T00:46:15;-2.63;88.38
49489;SHT31;35382;51.484;11.476;2023-04-06T00:47:56;-2.59;88.29
49489;SHT31;35382;51.484;11.476;2023-04-06T00:49:37;-2.58;88.41
49489;SHT31;35382;51.484;11.476;2023-04-06T00:51:20;-2.55;88.11
49489;SHT31;35382;51.484;11.476;2023-04-06T00:53:01;-2.53;87.95
49489;SHT31;35382;51.484;11.476;2023-04-06T00:54:43;-2.62;88.54
49489;SHT31;35382;51.484;11.476;2023-04-06T00:56:25;-2.55;88.15
49489;SHT31;35382;51.484;11.476;2023-04-06T00:58:08;-2.45;87.43
49489;SHT31;35382;51.484;11.476;2023-04-06T00:59:59;-2.49;87.65
49489;SHT31;35382;51.484;11.476;2023-04-06T01:01:40;-2.58;87.75
49489;SHT31;35382;51.484;11.476;2023-04-06T01:03:36;-2.56;87.90
49489;SHT31;35382;51.484;11.476;2023-04-06T01:05:17;-2.68;88.40
49489;SHT31;35382;51.484;11.476;2023-04-06T01:07:05;-2.65;88.37
49489;SHT31;35382;51.484;11.476;2023-04-06T01:08:55;-2.59;88.25
49489;SHT31;35382;51.484;11.476;2023-04-06T01:10:39;-2.63;87.99
49489;SHT31;35382;51.484;11.476;2023-04-06T01:12:27;-2.61;87.95
49489;SHT31;35382;51.484;11.476;2023-04-06T01:14:08;-2.66;88.16
49489;SHT31;35382;51.484;11.476;2023-04-06T01:16:12;-2.69;88.60
49489;SHT31;35382;51.484;11.476;2023-04-06T01:18:01;-2.69;88.19
49489;SHT31;35382;51.484;11.476;2023-04-06T01:19:43;-2.73;88.43
49489;SHT31;35382;51.484;11.476;2023-04-06T01:21:33;-2.62;88.02
49489;SHT31;35382;51.484;11.476;2023-04-06T01:23:26;-2.69;88.24
49489;SHT31;35382;51.484;11.476;2023-04-06T01:25:07;-2.69;88.15
49489;SHT31;35382;51.484;11.476;2023-04-06T01:27:01;-2.69;87.90
49489;SHT31;35382;51.484;11.476;2023-04-06T01:28:49;-2.62;87.78
49489;SHT31;35382;51.484;11.476;2023-04-06T01:30:42;-2.70;87.95
49489;SHT31;35382;51.484;11.476;2023-04-06T01:32:32;-2.68;87.89
49489;SHT31;35382;51.484;11.476;2023-04-06T01:34:13;-2.63;87.90
49489;SHT31;35382;51.484;11.476;2023-04-06T01:35:54;-2.73;88.19
49489;SHT31;35382;51.484;11.476;2023-04-06T01:37:35;-2.70;88.08
49489;SHT31;35382;51.484;11.476;2023-04-06T01:39:19;-2.77;88.37
49489;SHT31;35382;51.484;11.476;2023-04-06T01:41:01;-2.87;88.83
49489;SHT31;35382;51.484;11.476;2023-04-06T01:42:48;-2.92;89.16
49489;SHT31;35382;51.484;11.476;2023-04-06T01:44:36;-2.87;88.95
49489;SHT31;35382;51.484;11.476;2023-04-06T01:46:25;-2.80;88.62
49489;SHT31;35382;51.484;11.476;2023-04-06T01:48:07;-2.90;88.82
49489;SHT31;35382;51.484;11.476;2023-04-06T01:49:48;-2.90;89.08
49489;SHT31;35382;51.484;11.476;2023-04-06T01:51:29;-2.97;89.10
49489;SHT31;35382;51.484;11.476;2023-04-06T01:53:13;-3.01;89.47
49489;SHT31;35382;51.484;11.476;2023-04-06T01:54:57;-3.00;89.53
49489;SHT31;35382;51.484;11.476;2023-04-06T01:56:55;-2.97;89.37
49489;SHT31;35382;51.484;11.476;2023-04-06T01:58:45;-3.09;89.47
49489;SHT31;35382;51.484;11.476;2023-04-06T02:00:28;-3.09;89.83
49489;SHT31;35382;51.484;11.476;2023-04-06T02:02:09;-3.11;89.83
49489;SHT31;35382;51.484;11.476;2023-04-06T02:03:54;-3.09;89.87
49489;SHT31;35382;51.484;11.476;2023-04-06T02:05:37;-3.13;90.00
49489;SHT31;35382;51.484;11.476;2023-04-06T02:07:29;-2.96;89.74
49489;SHT31;35382;51.484;11.476;2023-04-06T02:09:11;-3.07;89.44
49489;SHT31;35382;51.484;11.476;2023-04-06T02:10:51;-3.10;89.70
49489;SHT31;35382;51.484;11.476;2023-04-06T02:12:42;-3.11;89.68
49489;SHT31;35382;51.484;11.476;2023-04-06T02:14:27;-3.16;89.70
49489;SHT31;35382;51.484;11.476;2023-04-06T02:16:11;-3.07;89.88
49489;SHT31;35382;51.484;11.476;2023-04-06T02:17:52;-3.10;89.91
49489;SHT31;35382;51.484;11.476;2023-04-06T02:19:34;-3.10;89.64
49489;SHT31;35382;51.484;11.476;2023-04-06T02:21:14;-3.14;89.84
49489;SHT31;35382;51.484;11.476;2023-04-06T02:23:00;-3.19;89.89
49489;SHT31;35382;51.484;11.476;2023-04-06T02:24:41;-3.20;89.87
49489;SHT31;35382;51.484;11.476;2023-04-06T02:26:22;-3.13;89.61
49489;SHT31;35382;51.484;11.476;2023-04-06T02:28:04;-3.16;89.70
49489;SHT31;35382;51.484;11.476;2023-04-06T02:29:45;-3.14;89.74
49489;SHT31;35382;51.484;11.476;2023-04-06T02:31:26;-3.07;89.67
49489;SHT31;35382;51.484;11.476;2023-04-06T02:33:07;-3.07;89.41
49489;SHT31;35382;51.484;11.476;2023-04-06T02:34:57;-3.13;89.40
49489;SHT31;35382;51.484;11.476;2023-04-06T02:36:40;-3.16;89.47
49489;SHT31;35382;51.484;11.476;2023-04-06T02:38:22;-3.09;89.63
49489;SHT31;35382;51.484;11.476;2023-04-06T02:40:03;-3.16;89.74
49489;SHT31;35382;51.484;11.476;2023-04-06T02:41:46;-3.17;89.85
49489;SHT31;35382;51.484;11.476;2023-04-06T02:43:32;-3.11;89.68
49489;SHT31;35382;51.484;11.476;2023-04-06T02:45:21;-3.03;89.15
49489;SHT31;35382;51.484;11.476;2023-04-06T02:47:02;-3.04;89.28
49489;SHT31;35382;51.484;11.476;2023-04-06T02:48:43;-3.03;89.21
49489;SHT31;35382;51.484;11.476;2023-04-06T02:50:24;-3.01;88.94
49489;SHT31;35382;51.484;11.476;2023-04-06T02:52:13;-2.99;89.22
49489;SHT31;35382;51.484;11.476;2023-04-06T02:53:54;-3.01;89.28
49489;SHT31;35382;51.484;11.476;2023-04-06T02:55:35;-3.04;89.15
49489;SHT31;35382;51.484;11.476;2023-04-06T02:57:16;-3.16;89.54
49489;SHT31;35382;51.484;11.476;2023-04-06T02:58:59;-3.21;89.74
49489;SHT31;35382;51.484;11.476;2023-04-06T03:00:43;-3.19;89.85
49489;SHT31;35382;51.484;11.476;2023-04-06T03:02:25;-3.16;89.84
49489;SHT31;35382;51.484;11.476;2023-04-06T03:04:08;-3.10;89.63
49489;SHT31;35382;51.484;11.476;2023-04-06T03:05:49;-3.19;89.55
49489;SHT31;35382;51.484;11.476;2023-04-06T03:07:34;-3.11;89.45
49489;SHT31;35382;51.484;11.476;2023-04-06T03:09:16;-3.11;88.82
49489;SHT31;35382;51.484;11.476;2023-04-06T03:10:58;-3.09;88.59
49489;SHT31;35382;51.484;11.476;2023-04-06T03:12:47;-3.00;88.64
49489;SHT31;35382;51.484;11.476;2023-04-06T03:14:35;-3.03;88.59
49489;SHT31;35382;51.484;11.476;2023-04-06T03:16:18;-3.10;88.88
49489;SHT31;35382;51.484;11.476;2023-04-06T03:17:59;-3.07;88.93
49489;SHT31;35382;51.484;11.476;2023-04-06T03:19:47;-3.19;89.30
49489;SHT31;35382;51.484;11.476;2023-04-06T03:21:28;-3.30;89.63
49489;SHT31;35382;51.484;11.476;2023-04-06T03:23:09;-3.29;89.87
49489;SHT31;35382;51.484;11.476;2023-04-06T03:24:54;-3.26;89.76
49489;SHT31;35382;51.484;11.476;2023-04-06T03:26:36;-3.13;89.23
49489;SHT31;35382;51.484;11.476;2023-04-06T03:28:20;-3.11;88.96
49489;SHT31;35382;51.484;11.476;2023-04-06T03:30:07;-3.26;89.26
49489;SHT31;35382;51.484;11.476;2023-04-06T03:31:49;-3.17;89.31
49489;SHT31;35382;51.484;11.476;2023-04-06T03:33:44;-3.11;88.97
49489;SHT31;35382;51.484;11.476;2023-04-06T03:35:31;-3.20;88.99
49489;SHT31;35382;51.484;11.476;2023-04-06T03:37:12;-3.23;89.22
49489;SHT31;35382;51.484;11.476;2023-04-06T03:39:00;-3.21;89.14
49489;SHT31;35382;51.484;11.476;2023-04-06T03:40:41;-3.19;89.21
49489;SHT31;35382;51.484;11.476;2023-04-06T03:42:23;-3.30;89.41
49489;SHT31;35382;51.484;11.476;2023-04-06T03:44:08;-3.20;89.33
49489;SHT31;35382;51.484;11.476;2023-04-06T03:45:49;-3.30;89.57
49489;SHT31;35382;51.484;11.476;2023-04-06T03:47:30;-3.19;89.45
49489;SHT31;35382;51.484;11.476;2023-04-06T03:49:15;-3.11;88.57
49489;SHT31;35382;51.484;11.476;2023-04-06T03:51:00;-3.20;88.97
49489;SHT31;35382;51.484;11.476;2023-04-06T03:52:41;-3.26;89.17
49489;SHT31;35382;51.484;11.476;2023-04-06T03:54:22;-3.21;88.94
49489;SHT31;35382;51.484;11.476;2023-04-06T03:56:03;-3.19;88.63
49489;SHT31;35382;51.484;11.476;2023-04-06T03:57:44;-3.23;88.73
49489;SHT31;35382;51.484;11.476;2023-04-06T03:59:25;-3.30;89.26
49489;SHT31;35382;51.484;11.476;2023-04-06T04:01:07;-3.21;88.94
49489;SHT31;35382;51.484;11.476;2023-04-06T04:02:49;-3.17;88.70
49489;SHT31;35382;51.484;11.476;2023-04-06T04:04:30;-3.31;89.29
49489;SHT31;35382;51.484;11.476;2023-04-06T04:06:12;-3.31;89.55
49489;SHT31;35382;51.484;11.476;2023-04-06T04:07:55;-3.30;89.52
49489;SHT31;35382;51.484;11.476;2023-04-06T04:09:40;-3.36;89.65
49489;SHT31;35382;51.484;11.476;2023-04-06T04:11:21;-3.30;89.68
49489;SHT31;35382;51.484;11.476;2023-04-06T04:13:09;-3.24;89.26
49489;SHT31;35382;51.484;11.476;2023-04-06T04:14:50;-3.34;89.76
49489;SHT31;35382;51.484;11.476;2023-04-06T04:16:31;-3.40;89.98
49489;SHT31;35382;51.484;11.476;2023-04-06T04:18:12;-3.40;90.09
49489;SHT31;35382;51.484;11.476;2023-04-06T04:19:54;-3.50;90.39
49489;SHT31;35382;51.484;11.476;2023-04-06T04:21:45;-3.48;90.28
49489;SHT31;35382;51.484;11.476;2023-04-06T04:23:28;-3.34;89.54
49489;SHT31;35382;51.484;11.476;2023-04-06T04:25:09;-3.42;89.48
49489;SHT31;35382;51.484;11.476;2023-04-06T04:26:55;-3.42;89.93
49489;SHT31;35382;51.484;11.476;2023-04-06T04:28:38;-3.50;90.18
49489;SHT31;35382;51.484;11.476;2023-04-06T04:30:19;-3.54;90.57
49489;SHT31;35382;51.484;11.476;2023-04-06T04:32:00;-3.53;90.62
49489;SHT31;35382;51.484;11.476;2023-04-06T04:33:41;-3.54;90.48
49489;SHT31;35382;51.484;11.476;2023-04-06T04:35:28;-3.53;90.37
49489;SHT31;35382;51.484;11.476;2023-04-06T04:37:09;-3.48;90.25
49489;SHT31;35382;51.484;11.476;2023-04-06T04:39:02;-3.44;89.98
49489;SHT31;35382;51.484;11.476;2023-04-06T04:40:46;-3.53;90.26
49489;SHT31;35382;51.484;11.476;2023-04-06T04:42:27;-3.51;90.52
49489;SHT31;35382;51.484;11.476;2023-04-06T04:44:11;-3.53;90.52
49489;SHT31;35382;51.484;11.476;2023-04-06T04:45:52;-3.51;90.46
49489;SHT31;35382;51.484;11.476;2023-04-06T04:47:44;-3.58;90.80
49489;SHT31;35382;51.484;11.476;2023-04-06T04:49:28;-3.57;91.16
49489;SHT31;35382;51.484;11.476;2023-04-06T04:51:10;-3.53;91.18
49489;SHT31;35382;51.484;11.476;2023-04-06T04:53:20;-3.48;90.67
49489;SHT31;35382;51.484;11.476;2023-04-06T04:55:01;-3.46;90.75
49489;SHT31;35382;51.484;11.476;2023-04-06T04:56:43;-3.39;90.58
49489;SHT31;35382;51.484;11.476;2023-04-06T04:58:47;-3.44;90.74
49489;SHT31;35382;51.484;11.476;2023-04-06T05:00:29;-3.43;90.65
49489;SHT31;35382;51.484;11.476;2023-04-06T05:02:12;-3.37;90.34
49489;SHT31;35382;51.484;11.476;2023-04-06T05:04:03;-3.29;90.15
49489;SHT31;35382;51.484;11.476;2023-04-06T05:05:44;-3.21;89.71
49489;SHT31;35382;51.484;11.476;2023-04-06T05:07:26;-3.17;89.65
49489;SHT31;35382;51.484;11.476;2023-04-06T05:09:09;-3.14;89.40
49489;SHT31;35382;51.484;11.476;2023-04-06T05:10:50;-3.07;89.53
49489;SHT31;35382;51.484;11.476;2023-04-06T05:12:33;-3.11;89.56
49489;SHT31;35382;51.484;11.476;2023-04-06T05:14:19;-3.17;90.01
49489;SHT31;35382;51.484;11.476;2023-04-06T05:16:01;-3.11;90.19
49489;SHT31;35382;51.484;11.476;2023-04-06T05:17:46;-3.06;90.22
49489;SHT31;35382;51.484;11.476;2023-04-06T05:19:31;-2.96;90.06
49489;SHT31;35382;51.484;11.476;2023-04-06T05:21:12;-2.93;89.75
49489;SHT31;35382;51.484;11.476;2023-04-06T05:23:05;-2.79;89.40
49489;SHT31;35382;51.484;11.476;2023-04-06T05:24:46;-2.73;89.49
49489;SHT31;35382;51.484;11.476;2023-04-06T05:26:28;-2.62;89.29
49489;SHT31;35382;51.484;11.476;2023-04-06T05:28:16;-2.51;89.10
49489;SHT31;35382;51.484;11.476;2023-04-06T05:29:58;-2.48;88.96
49489;SHT31;35382;51.484;11.476;2023-04-06T05:31:41;-2.34;88.50
49489;SHT31;35382;51.484;11.476;2023-04-06T05:33:24;-2.32;88.24
49489;SHT31;35382;51.484;11.476;2023-04-06T05:35:19;-2.30;88.39
49489;SHT31;35382;51.484;11.476;2023-04-06T05:37:04;-2.12;88.31
49489;SHT31;35382;51.484;11.476;2023-04-06T05:38:47;-2.09;88.24
49489;SHT31;35382;51.484;11.476;2023-04-06T05:40:42;-1.94;88.27
49489;SHT31;35382;51.484;11.476;2023-04-06T05:42:28;-1.77;87.76
49489;SHT31;35382;51.484;11.476;2023-04-06T05:44:17;-1.63;87.07
49489;SHT31;35382;51.484;11.476;2023-04-06T05:46:03;-1.59;86.86
49489;SHT31;35382;51.484;11.476;2023-04-06T05:47:44;-1.57;87.02
49489;SHT31;35382;51.484;11.476;2023-04-06T05:49:34;-1.57;87.14
49489;SHT31;35382;51.484;11.476;2023-04-06T05:51:16;-1.36;86.60
49489;SHT31;35382;51.484;11.476;2023-04-06T05:53:03;-1.25;85.06
49489;SHT31;35382;51.484;11.476;2023-04-06T05:54:51;-1.15;84.84
49489;SHT31;35382;51.484;11.476;2023-04-06T05:56:32;-0.95;84.98
49489;SHT31;35382;51.484;11.476;2023-04-06T05:58:15;-0.82;85.00
49489;SHT31;35382;51.484;11.476;2023-04-06T05:59:58;-0.59;84.93
49489;SHT31;35382;51.484;11.476;2023-04-06T06:01:42;-0.44;84.48
49489;SHT31;35382;51.484;11.476;2023-04-06T06:03:24;-0.34;84.84
49489;SHT31;35382;51.484;11.476;2023-04-06T06:05:09;-0.24;84.92
49489;SHT31;35382;51.484;11.476;2023-04-06T06:06:51;-0.13;84.85
49489;SHT31;35382;51.484;11.476;2023-04-06T06:08:40;0.05;84.25
49489;SHT31;35382;51.484;11.476;2023-04-06T06:10:27;0.21;84.13
49489;SHT31;35382;51.484;11.476;2023-04-06T06:12:08;0.27;83.60
49489;SHT31;35382;51.484;11.476;2023-04-06T06:13:49;0.37;82.46
49489;SHT31;35382;51.484;11.476;2023-04-06T06:15:30;0.47;81.80
49489;SHT31;35382;51.484;11.476;2023-04-06T06:17:13;0.58;81.03
49489;SHT31;35382;51.484;11.476;2023-04-06T06:18:56;0.74;80.21
49489;SHT31;35382;51.484;11.476;2023-04-06T06:20:38;0.91;79.76
49489;SHT31;35382;51.484;11.476;2023-04-06T06:22:20;1.04;79.05
49489;SHT31;35382;51.484;11.476;2023-04-06T06:24:02;1.11;78.84
49489;SHT31;35382;51.484;11.476;2023-04-06T06:25:43;1.17;78.43
49489;SHT31;35382;51.484;11.476;2023-04-06T06:27:24;1.18;77.94
49489;SHT31;35382;51.484;11.476;2023-04-06T06:29:06;1.17;77.92
49489;SHT31;35382;51.484;11.476;2023-04-06T06:30:49;1.21;77.79
49489;SHT31;35382;51.484;11.476;2023-04-06T06:32:35;1.36;77.75
49489;SHT31;35382;51.484;11.476;2023-04-06T06:34:15;1.45;76.98
49489;SHT31;35382;51.484;11.476;2023-04-06T06:35:57;1.45;76.90
49489;SHT31;35382;51.484;11.476;2023-04-06T06:37:38;1.53;77.57
49489;SHT31;35382;51.484;11.476;2023-04-06T06:39:19;1.60;77.16
49489;SHT31;35382;51.484;11.476;2023-04-06T06:41:02;1.72;76.13
49489;SHT31;35382;51.484;11.476;2023-04-06T06:42:46;1.87;75.84
49489;SHT31;35382;51.484;11.476;2023-04-06T06:44:40;1.87;75.36
49489;SHT31;35382;51.484;11.476;2023-04-06T06:46:21;1.77;75.14
49489;SHT31;35382;51.484;11.476;2023-04-06T06:48:02;1.79;74.31
49489;SHT31;35382;51.484;11.476;2023-04-06T06:49:43;1.97;75.69
49489;SHT31;35382;51.484;11.476;2023-04-06T06:51:23;2.11;75.17
49489;SHT31;35382;51.484;11.476;2023-04-06T06:53:04;2.13;73.50
49489;SHT31;35382;51.484;11.476;2023-04-06T06:54:46;2.21;74.60
49489;SHT31;35382;51.484;11.476;2023-04-06T06:56:27;2.34;73.96
49489;SHT31;35382;51.484;11.476;2023-04-06T06:58:08;2.61;73.36
49489;SHT31;35382;51.484;11.476;2023-04-06T06:59:49;2.74;72.36
49489;SHT31;35382;51.484;11.476;2023-04-06T07:01:36;2.73;72.06
49489;SHT31;35382;51.484;11.476;2023-04-06T07:03:20;2.78;70.71
49489;SHT31;35382;51.484;11.476;2023-04-06T07:05:02;2.84;70.92
49489;SHT31;35382;51.484;11.476;2023-04-06T07:06:44;2.92;70.73
49489;SHT31;35382;51.484;11.476;2023-04-06T07:08:25;2.95;70.52
49489;SHT31;35382;51.484;11.476;2023-04-06T07:10:07;2.99;70.37
49489;SHT31;35382;51.484;11.476;2023-04-06T07:11:49;3.12;70.20
49489;SHT31;35382;51.484;11.476;2023-04-06T07:13:30;3.28;69.69
49489;SHT31;35382;51.484;11.476;2023-04-06T07:15:13;3.42;69.58
49489;SHT31;35382;51.484;11.476;2023-04-06T07:16:54;3.66;70.36
49489;SHT31;35382;51.484;11.476;2023-04-06T07:18:35;3.73;70.62
49489;SHT31;35382;51.484;11.476;2023-04-06T07:20:16;3.89;69.43
49489;SHT31;35382;51.484;11.476;2023-04-06T07:21:57;4.07;70.23
49489;SHT31;35382;51.484;11.476;2023-04-06T07:23:38;4.11;69.62
49489;SHT31;35382;51.484;11.476;2023-04-06T07:25:21;4.40;68.26
49489;SHT31;35382;51.484;11.476;2023-04-06T07:27:02;4.64;66.26
49489;SHT31;35382;51.484;11.476;2023-04-06T07:28:43;4.65;67.73
49489;SHT31;35382;51.484;11.476;2023-04-06T07:30:25;4.75;67.01
49489;SHT31;35382;51.484;11.476;2023-04-06T07:32:08;5.01;65.42
49489;SHT31;35382;51.484;11.476;2023-04-06T07:33:50;4.89;66.23
49489;SHT31;35382;51.484;11.476;2023-04-06T07:35:32;5.04;66.96
49489;SHT31;35382;51.484;11.476;2023-04-06T07:37:13;5.39;65.90
49489;SHT31;35382;51.484;11.476;2023-04-06T07:38:54;5.31;64.68
49489;SHT31;35382;51.484;11.476;2023-04-06T07:40:36;5.47;64.32
49489;SHT31;35382;51.484;11.476;2023-04-06T07:42:18;5.32;63.85
49489;SHT31;35382;51.484;11.476;2023-04-06T07:43:59;5.32;64.72
49489;SHT31;35382;51.484;11.476;2023-04-06T07:45:40;5.50;65.64
49489;SHT31;35382;51.484;11.476;2023-04-06T07:47:23;5.59;65.89
49489;SHT31;35382;51.484;11.476;2023-04-06T07:49:06;5.33;65.07
49489;SHT31;35382;51.484;11.476;2023-04-06T07:50:48;5.36;64.26
49489;SHT31;35382;51.484;11.476;2023-04-06T07:52:30;5.55;63.57
49489;SHT31;35382;51.484;11.476;2023-04-06T07:54:12;6.14;64.09
49489;SHT31;35382;51.484;11.476;2023-04-06T07:55:53;5.91;64.63
49489;SHT31;35382;51.484;11.476;2023-04-06T07:57:34;6.13;64.60
49489;SHT31;35382;51.484;11.476;2023-04-06T07:59:15;6.54;63.46
49489;SHT31;35382;51.484;11.476;2023-04-06T08:00:56;5.91;61.82
49489;SHT31;35382;51.484;11.476;2023-04-06T08:02:38;6.10;63.69
49489;SHT31;35382;51.484;11.476;2023-04-06T08:04:19;6.38;63.09
49489;SHT31;35382;51.484;11.476;2023-04-06T08:06:01;6.63;61.62
49489;SHT31;35382;51.484;11.476;2023-04-06T08:07:42;6.75;61.58
49489;SHT31;35382;51.484;11.476;2023-04-06T08:09:23;6.81;62.35
49489;SHT31;35382;51.484;11.476;2023-04-06T08:11:04;6.72;61.88
49489;SHT31;35382;51.484;11.476;2023-04-06T08:12:45;6.72;61.35
49489;SHT31;35382;51.484;11.476;2023-04-06T08:14:26;6.81;61.89
49489;SHT31;35382;51.484;11.476;2023-04-06T08:16:07;6.72;62.04
49489;SHT31;35382;51.484;11.476;2023-04-06T08:17:47;7.09;61.62
49489;SHT31;35382;51.484;11.476;2023-04-06T08:19:28;7.30;63.52
49489;SHT31;35382;51.484;11.476;2023-04-06T08:21:09;7.29;62.76
49489;SHT31;35382;51.484;11.476;2023-04-06T08:22:50;7.12;59.67
49489;SHT31;35382;51.484;11.476;2023-04-06T08:24:31;7.42;60.55
49489;SHT31;35382;51.484;11.476;2023-04-06T08:26:13;7.52;60.01
49489;SHT31;35382;51.484;11.476;2023-04-06T08:27:53;8.18;60.43
49489;SHT31;35382;51.484;11.476;2023-04-06T08:29:34;7.74;58.82
49489;SHT31;35382;51.484;11.476;2023-04-06T08:31:15;7.87;60.82
49489;SHT31;35382;51.484;11.476;2023-04-06T08:32:56;8.28;59.53
49489;SHT31;35382;51.484;11.476;2023-04-06T08:34:37;8.27;56.83
49489;SHT31;35382;51.484;11.476;2023-04-06T08:36:18;8.11;58.91
49489;SHT31;35382;51.484;11.476;2023-04-06T08:38:03;8.36;58.80
49489;SHT31;35382;51.484;11.476;2023-04-06T08:39:44;8.67;55.79
49489;SHT31;35382;51.484;11.476;2023-04-06T08:41:25;8.15;56.91
49489;SHT31;35382;51.484;11.476;2023-04-06T08:43:09;8.31;57.64
49489;SHT31;35382;51.484;11.476;2023-04-06T08:44:53;8.03;57.44
49489;SHT31;35382;51.484;11.476;2023-04-06T08:46:34;7.74;56.58
49489;SHT31;35382;51.484;11.476;2023-04-06T08:48:16;8.07;57.45
49489;SHT31;35382;51.484;11.476;2023-04-06T08:49:58;8.34;57.46
49489;SHT31;35382;51.484;11.476;2023-04-06T08:51:40;8.23;58.70
49489;SHT31;35382;51.484;11.476;2023-04-06T08:53:22;8.58;58.04
49489;SHT31;35382;51.484;11.476;2023-04-06T08:55:03;8.49;57.03
49489;SHT31;35382;51.484;11.476;2023-04-06T08:56:44;9.12;55.81
49489;SHT31;35382;51.484;11.476;2023-04-06T08:58:28;9.42;56.64
49489;SHT31;35382;51.484;11.476;2023-04-06T09:00:12;9.04;57.77
49489;SHT31;35382;51.484;11.476;2023-04-06T09:01:54;9.12;58.43
49489;SHT31;35382;51.484;11.476;2023-04-06T09:03:38;8.88;57.83
49489;SHT31;35382;51.484;11.476;2023-04-06T09:05:24;9.16;55.03
49489;SHT31;35382;51.484;11.476;2023-04-06T09:07:08;9.59;54.00
49489;SHT31;35382;51.484;11.476;2023-04-06T09:08:49;9.51;55.73
49489;SHT31;35382;51.484;11.476;2023-04-06T09:10:32;9.44;55.67
49489;SHT31;35382;51.484;11.476;2023-04-06T09:12:26;9.28;53.22
49489;SHT31;35382;51.484;11.476;2023-04-06T09:14:10;9.30;54.60
49489;SHT31;35382;51.484;11.476;2023-04-06T09:16:04;9.46;52.56
49489;SHT31;35382;51.484;11.476;2023-04-06T09:17:46;9.33;52.47
49489;SHT31;35382;51.484;11.476;2023-04-06T09:19:27;9.32;55.57
49489;SHT31;35382;51.484;11.476;2023-04-06T09:21:09;9.25;55.44
49489;SHT31;35382;51.484;11.476;2023-04-06T09:22:50;9.46;54.30
49489;SHT31;35382;51.484;11.476;2023-04-06T09:26:25;10.03;48.24
49489;SHT31;35382;51.484;11.476;2023-04-06T09:28:06;9.91;49.39
49489;SHT31;35382;51.484;11.476;2023-04-06T09:29:48;9.73;48.51
49489;SHT31;35382;51.484;11.476;2023-04-06T09:31:31;10.04;50.85
49489;SHT31;35382;51.484;11.476;2023-04-06T09:33:22;10.14;46.54
49489;SHT31;35382;51.484;11.476;2023-04-06T09:35:07;10.37;50.61
49489;SHT31;35382;51.484;11.476;2023-04-06T09:36:49;10.08;51.13
49489;SHT31;35382;51.484;11.476;2023-04-06T09:38:30;9.94;52.09
49489;SHT31;35382;51.484;11.476;2023-04-06T09:40:11;10.17;52.23
49489;SHT31;35382;51.484;11.476;2023-04-06T09:41:54;10.58;50.09
49489;SHT31;35382;51.484;11.476;2023-04-06T09:43:35;10.84;47.92
49489;SHT31;35382;51.484;11.476;2023-04-06T09:45:16;10.65;50.53
49489;SHT31;35382;51.484;11.476;2023-04-06T09:46:57;10.38;47.91
49489;SHT31;35382;51.484;11.476;2023-04-06T09:48:37;10.28;48.44
49489;SHT31;35382;51.484;11.476;2023-04-06T09:50:19;10.25;50.01
49489;SHT31;35382;51.484;11.476;2023-04-06T09:52:03;10.13;47.20
49489;SHT31;35382;51.484;11.476;2023-04-06T09:53:44;10.18;49.60
49489;SHT31;35382;51.484;11.476;2023-04-06T09:55:30;10.44;48.30
49489;SHT31;35382;51.484;11.476;2023-04-06T09:57:26;10.62;50.36
49489;SHT31;35382;51.484;11.476;2023-04-06T09:59:13;10.69;47.11
49489;SHT31;35382;51.484;11.476;2023-04-06T10:01:01;10.50;48.45
49489;SHT31;35382;51.484;11.476;2023-04-06T10:04:43;11.39;44.88
49489;SHT31;35382;51.484;11.476;2023-04-06T10:06:27;10.95;46.08
49489;SHT31;35382;51.484;11.476;2023-04-06T10:08:09;11.02;50.34
49489;SHT31;35382;51.484;11.476;2023-04-06T10:09:53;11.06;47.98
49489;SHT31;35382;51.484;11.476;2023-04-06T10:11:34;11.49;44.24
49489;SHT31;35382;51.484;11.476;2023-04-06T10:13:15;11.47;49.02
49489;SHT31;35382;51.484;11.476;2023-04-06T10:14:57;11.35;47.78
49489;SHT31;35382;51.484;11.476;2023-04-06T10:16:38;11.32;49.31
49489;SHT31;35382;51.484;11.476;2023-04-06T10:18:19;11.14;46.70
49489;SHT31;35382;51.484;11.476;2023-04-06T10:20:15;11.18;49.64
49489;SHT31;35382;51.484;11.476;2023-04-06T10:21:58;10.82;49.30
49489;SHT31;35382;51.484;11.476;2023-04-06T10:23:45;10.64;47.55
49489;SHT31;35382;51.484;11.476;2023-04-06T10:25:29;10.75;50.20
49489;SHT31;35382;51.484;11.476;2023-04-06T10:27:10;10.65;49.64
49489;SHT31;35382;51.484;11.476;2023-04-06T10:28:51;10.85;47.79
49489;SHT31;35382;51.484;11.476;2023-04-06T10:30:34;10.96;47.99
49489;SHT31;35382;51.484;11.476;2023-04-06T10:32:15;11.12;48.40
49489;SHT31;35382;51.484;11.476;2023-04-06T10:34:02;11.53;46.84
49489;SHT31;35382;51.484;11.476;2023-04-06T10:35:44;11.01;44.34
49489;SHT31;35382;51.484;11.476;2023-04-06T10:37:24;11.33;47.54
49489;SHT31;35382;51.484;11.476;2023-04-06T10:39:06;11.39;46.73
49489;SHT31;35382;51.484;11.476;2023-04-06T10:40:48;10.92;45.09
49489;SHT31;35382;51.484;11.476;2023-04-06T10:42:38;11.66;44.14
49489;SHT31;35382;51.484;11.476;2023-04-06T10:44:23;11.44;49.23
49489;SHT31;35382;51.484;11.476;2023-04-06T10:46:06;11.35;49.98
49489;SHT31;35382;51.484;11.476;2023-04-06T10:47:47;11.40;45.45
49489;SHT31;35382;51.484;11.476;2023-04-06T10:49:28;11.28;48.23